Time;durP1;ratioP1;P1;durP2;ratioP2;P2;SDS_P1;SDS_P2;PMS_P1;PMS_P2;Temp;Humidity;BMP_temperature;BMP_pressure;BME280_temperature;BME280_humidity;BME280_pressure;Samples;Min_cycle;Max_cycle;Signal;HPM_P1;HPM_P2
2022/06/11 00:00:23;;;;;;;10.75;2.55;;;;;;;;;;5095034;28;20071;-68
2022/06/11 00:02:50;;;;;;;10.95;3.15;;;;;;;;;;5094794;28;20087;-69
2022/06/11 00:05:17;;;;;;;15.82;3.15;;;;;;;;;;5095046;28;20446;-71
2022/06/11 00:07:43;;;;;;;11.38;2.42;;;;;;;;;;5094665;28;20075;-68
2022/06/11 00:10:10;;;;;;;10.23;2.38;;;;;;;;;;5093390;28;20457;-68
2022/06/11 00:12:36;;;;;;;14.05;2.88;;;;;;;;;;5094762;28;20083;-68
2022/06/11 00:15:04;;;;;;;12.15;3.15;;;;;;;;;;5094785;28;20071;-68
2022/06/11 00:17:30;;;;;;;13.60;2.80;;;;;;;;;;5094933;28;20388;-68
2022/06/11 00:19:58;;;;;;;13.45;2.97;;;;;;;;;;5094433;28;20561;-68
2022/06/11 00:22:24;;;;;;;13.52;2.42;;;;;;;;;;5094461;28;20467;-68
2022/06/11 00:24:51;;;;;;;12.02;2.47;;;;;;;;;;5093344;28;20090;-68
2022/06/11 00:27:19;;;;;;;11.57;3.03;;;;;;;;;;5094497;28;20040;-68
2022/06/11 00:29:46;;;;;;;13.15;2.28;;;;;;;;;;5094439;28;20063;-68
2022/06/11 00:32:13;;;;;;;12.68;3.25;;;;;;;;;;5094659;28;20048;-68
2022/06/11 00:34:41;;;;;;;12.32;2.78;;;;;;;;;;5094427;28;20414;-70
2022/06/11 00:37:08;;;;;;;12.93;2.83;;;;;;;;;;5094143;28;20531;-70
2022/06/11 00:39:35;;;;;;;13.00;3.10;;;;;;;;;;5093966;28;20316;-68
2022/06/11 00:42:14;;;;;;;13.07;2.85;;;;;;;;;;5094042;28;20048;-68
2022/06/11 00:44:40;;;;;;;12.68;2.30;;;;;;;;;;5094220;28;20091;-68
2022/06/11 00:47:18;;;;;;;16.58;3.17;;;;;;;;;;5093113;28;20083;-68
2022/06/11 00:49:53;;;;;;;12.20;3.10;;;;;;;;;;5077262;28;20087;-68
2022/06/11 00:52:19;;;;;;;10.40;2.75;;;;;;;;;;5083035;28;20114;-68
2022/06/11 00:55:00;;;;;;;9.80;2.78;;;;;;;;;;5094167;28;20134;-68
2022/06/11 00:57:29;;;;;;;15.27;3.38;;;;;;;;;;5093772;28;20446;-68
2022/06/11 00:59:58;;;;;;;15.20;2.67;;;;;;;;;;5093856;28;20076;-68
2022/06/11 01:02:25;;;;;;;14.90;3.28;;;;;;;;;;5093855;28;20043;-68
2022/06/11 01:04:56;;;;;;;15.18;2.70;;;;;;;;;;5093742;28;20410;-68
2022/06/11 01:07:41;;;;;;;12.25;2.70;;;;;;;;;;5093769;28;20047;-68
2022/06/11 01:10:26;;;;;;;9.35;2.15;;;;;;;;;;5092164;28;20479;-68
2022/06/11 01:13:12;;;;;;;8.88;2.17;;;;;;;;;;5093365;28;20093;-68
2022/06/11 01:15:41;;;;;;;10.88;2.65;;;;;;;;;;5093366;28;20075;-68
2022/06/11 01:18:11;;;;;;;11.38;2.63;;;;;;;;;;5093431;28;20460;-68
2022/06/11 01:20:49;;;;;;;13.02;2.90;;;;;;;;;;5093514;28;20139;-68
2022/06/11 01:23:16;;;;;;;10.77;2.92;;;;;;;;;;5093712;28;20083;-68
2022/06/11 01:25:53;;;;;;;12.63;2.70;;;;;;;;;;5093055;28;20156;-68
2022/06/11 01:28:29;;;;;;;10.80;2.90;;;;;;;;;;5093112;28;20097;-68
2022/06/11 01:31:04;;;;;;;12.20;2.20;;;;;;;;;;5093319;28;20080;-68
2022/06/11 01:33:42;;;;;;;9.55;3.15;;;;;;;;;;5093234;28;20114;-68
2022/06/11 01:36:11;;;;;;;15.20;2.72;;;;;;;;;;5093000;28;20048;-69
2022/06/11 01:38:53;;;;;;;12.70;2.45;;;;;;;;;;5093181;28;20052;-69
2022/06/11 01:41:25;;;;;;;14.30;2.90;;;;;;;;;;5092916;28;20098;-69
2022/06/11 01:43:54;;;;;;;11.57;2.63;;;;;;;;;;5092806;28;20063;-69
2022/06/11 01:46:23;;;;;;;12.82;2.33;;;;;;;;;;5092687;28;20408;-69
2022/06/11 01:48:50;;;;;;;12.30;2.80;;;;;;;;;;5092604;28;20446;-69
2022/06/11 01:51:19;;;;;;;10.77;2.60;;;;;;;;;;5092767;28;20079;-69
2022/06/11 01:53:58;;;;;;;11.55;2.78;;;;;;;;;;5093216;28;20503;-69
2022/06/11 01:56:47;;;;;;;12.85;2.97;;;;;;;;;;5092540;28;20094;-69
2022/06/11 01:59:30;;;;;;;12.07;2.67;;;;;;;;;;5092025;28;20147;-69
2022/06/11 02:02:09;;;;;;;10.35;2.65;;;;;;;;;;5092687;28;20072;-69
2022/06/11 02:04:45;;;;;;;13.75;2.47;;;;;;;;;;5092486;28;20135;-69
2022/06/11 02:07:14;;;;;;;16.75;3.05;;;;;;;;;;5092221;28;20117;-69
2022/06/11 02:10:19;;;;;;;12.35;2.97;;;;;;;;;;5092485;28;20075;-69
2022/06/11 02:12:58;;;;;;;11.32;2.38;;;;;;;;;;5089995;28;20075;-69
2022/06/11 02:15:31;;;;;;;14.52;2.53;;;;;;;;;;5090043;28;20067;-68
2022/06/11 02:18:00;;;;;;;10.73;3.10;;;;;;;;;;5091393;28;20047;-69
2022/06/11 02:20:29;;;;;;;10.80;2.85;;;;;;;;;;5092496;28;20083;-68
2022/06/11 02:23:02;;;;;;;9.98;2.42;;;;;;;;;;5092373;28;20048;-69
2022/06/11 02:25:32;;;;;;;11.98;2.20;;;;;;;;;;5091943;28;20101;-69
2022/06/11 02:28:00;;;;;;;8.25;2.20;;;;;;;;;;5091928;28;20139;-69
2022/06/11 02:30:28;;;;;;;14.18;3.65;;;;;;;;;;5091932;28;20056;-69
2022/06/11 02:32:54;;;;;;;;;;;;;;;;;;5092391;28;20523;-69
2022/06/11 02:35:35;;;;;;;10.48;2.75;;;;;;;;;;5091907;28;20269;-69
2022/06/11 02:38:04;;;;;;;10.60;3.10;;;;;;;;;;5092025;28;20079;-68
2022/06/11 02:40:34;;;;;;;18.00;3.40;;;;;;;;;;5091740;28;20125;-69
2022/06/11 02:43:00;;;;;;;9.68;3.10;;;;;;;;;;5092077;28;20088;-69
2022/06/11 02:45:27;;;;;;;14.48;3.65;;;;;;;;;;5092187;28;20109;-69
2022/06/11 02:47:54;;;;;;;17.27;3.95;;;;;;;;;;5089968;28;20102;-69
2022/06/11 02:50:26;;;;;;;13.68;3.45;;;;;;;;;;5087401;28;20534;-69
2022/06/11 02:52:54;;;;;;;12.75;3.90;;;;;;;;;;5091621;28;20097;-69
2022/06/11 02:55:21;;;;;;;11.52;3.28;;;;;;;;;;5091828;28;20047;-69
2022/06/11 02:57:48;;;;;;;13.95;3.08;;;;;;;;;;5091885;28;20470;-69
2022/06/11 03:00:17;;;;;;;13.80;2.63;;;;;;;;;;5091911;28;20090;-68
2022/06/11 03:02:47;;;;;;;16.90;3.50;;;;;;;;;;5091621;28;20090;-68
2022/06/11 03:05:14;;;;;;;14.77;3.22;;;;;;;;;;5091786;28;20443;-68
2022/06/11 03:07:41;;;;;;;12.95;3.00;;;;;;;;;;5091617;28;20083;-69
2022/06/11 03:10:07;;;;;;;17.52;3.08;;;;;;;;;;5093406;28;20052;-68
2022/06/11 03:12:34;;;;;;;14.65;3.90;;;;;;;;;;5095700;28;20488;-68
2022/06/11 03:15:01;;;;;;;12.95;3.13;;;;;;;;;;5095645;28;20515;-68
2022/06/11 03:17:28;;;;;;;11.07;2.55;;;;;;;;;;5079480;28;20130;-68
2022/06/11 03:19:55;;;;;;;8.80;2.60;;;;;;;;;;5075776;28;20049;-69
2022/06/11 03:22:21;;;;;;;12.00;3.30;;;;;;;;;;5089734;28;20079;-68
2022/06/11 03:24:47;;;;;;;11.35;2.78;;;;;;;;;;5095797;28;20080;-68
2022/06/11 03:27:15;;;;;;;16.67;3.75;;;;;;;;;;5095481;28;20074;-69
2022/06/11 03:29:42;;;;;;;13.25;3.13;;;;;;;;;;5094315;28;20058;-68
2022/06/11 03:32:08;;;;;;;12.52;2.60;;;;;;;;;;5095507;28;20546;-68
2022/06/11 03:34:35;;;;;;;9.32;2.38;;;;;;;;;;5095460;28;20121;-68
2022/06/11 03:37:02;;;;;;;17.05;3.67;;;;;;;;;;5095599;28;20097;-69
2022/06/11 03:39:29;;;;;;;14.40;3.28;;;;;;;;;;5095156;28;20508;-69
2022/06/11 03:41:56;;;;;;;15.02;3.33;;;;;;;;;;5095318;28;20084;-69
2022/06/11 03:44:23;;;;;;;10.18;2.47;;;;;;;;;;5095420;28;20105;-69
2022/06/11 03:46:49;;;;;;;10.13;2.20;;;;;;;;;;5094964;28;20097;-68
2022/06/11 03:49:16;;;;;;;9.15;2.38;;;;;;;;;;5094753;28;20308;-69
2022/06/11 03:51:43;;;;;;;15.65;3.10;;;;;;;;;;5095199;28;20079;-69
2022/06/11 03:54:10;;;;;;;19.23;3.10;;;;;;;;;;5095114;28;20100;-69
2022/06/11 03:56:37;;;;;;;13.13;2.65;;;;;;;;;;5094847;28;20043;-69
2022/06/11 03:59:04;;;;;;;12.57;2.90;;;;;;;;;;5095147;28;20126;-69
2022/06/11 04:01:35;;;;;;;13.75;3.22;;;;;;;;;;5094848;28;20277;-69
2022/06/11 04:04:06;;;;;;;12.55;2.92;;;;;;;;;;5066482;28;20083;-69
2022/06/11 04:06:35;;;;;;;8.73;2.58;;;;;;;;;;5094806;28;20054;-70
2022/06/11 04:09:03;;;;;;;11.30;2.60;;;;;;;;;;5094819;28;20082;-69
2022/06/11 04:11:30;;;;;;;9.23;2.30;;;;;;;;;;5094877;28;20052;-69
2022/06/11 04:13:56;;;;;;;10.07;2.17;;;;;;;;;;5094935;28;20043;-68
2022/06/11 04:16:23;;;;;;;16.40;2.60;;;;;;;;;;5093250;28;20040;-68
2022/06/11 04:18:50;;;;;;;11.18;3.10;;;;;;;;;;5094659;28;20044;-68
2022/06/11 04:21:16;;;;;;;11.98;2.97;;;;;;;;;;5093505;28;20080;-68
2022/06/11 04:23:45;;;;;;;11.68;2.67;;;;;;;;;;5094364;28;20083;-69
2022/06/11 04:26:13;;;;;;;13.57;2.25;;;;;;;;;;5094326;28;20075;-69
2022/06/11 04:28:40;;;;;;;10.35;2.63;;;;;;;;;;5094471;28;20040;-69
2022/06/11 04:31:08;;;;;;;9.90;2.45;;;;;;;;;;5092931;28;20086;-69
2022/06/11 04:33:35;;;;;;;10.35;2.20;;;;;;;;;;5094481;28;20127;-69
2022/06/11 04:36:01;;;;;;;10.52;2.70;;;;;;;;;;5094261;28;20506;-69
2022/06/11 04:38:28;;;;;;;14.00;2.60;;;;;;;;;;5094380;28;20090;-68
2022/06/11 04:40:55;;;;;;;9.40;2.63;;;;;;;;;;5093947;28;20087;-69
2022/06/11 04:43:21;;;;;;;7.85;2.45;;;;;;;;;;5093965;28;20547;-69
2022/06/11 04:45:48;;;;;;;11.63;2.03;;;;;;;;;;5093913;28;20062;-69
2022/06/11 04:48:15;;;;;;;10.93;2.25;;;;;;;;;;5093864;28;20062;-68
2022/06/11 04:50:41;;;;;;;11.20;2.75;;;;;;;;;;5094020;28;20147;-68
2022/06/11 04:53:08;;;;;;;6.85;2.58;;;;;;;;;;5093849;28;20097;-69
2022/06/11 04:55:35;;;;;;;11.40;2.53;;;;;;;;;;5093713;28;20123;-69
2022/06/11 04:58:02;;;;;;;11.70;2.70;;;;;;;;;;5093619;28;20361;-69
2022/06/11 05:00:30;;;;;;;9.68;2.03;;;;;;;;;;5093930;28;20131;-69
2022/06/11 05:02:56;;;;;;;12.30;3.05;;;;;;;;;;5093664;28;20044;-69
2022/06/11 05:05:23;;;;;;;10.50;3.28;;;;;;;;;;5093719;28;20135;-68
2022/06/11 05:07:50;;;;;;;14.02;2.53;;;;;;;;;;5093515;28;20189;-69
2022/06/11 05:10:18;;;;;;;9.43;2.70;;;;;;;;;;5093371;28;20080;-69
2022/06/11 05:12:45;;;;;;;12.15;2.63;;;;;;;;;;5093697;28;20111;-69
2022/06/11 05:15:12;;;;;;;10.13;2.35;;;;;;;;;;5093636;28;20079;-68
2022/06/11 05:17:38;;;;;;;7.28;2.35;;;;;;;;;;5093416;28;20087;-69
2022/06/11 05:20:06;;;;;;;10.65;1.90;;;;;;;;;;5093653;28;20084;-69
2022/06/11 05:22:33;;;;;;;8.32;2.28;;;;;;;;;;5092276;28;20075;-69
2022/06/11 05:24:59;;;;;;;10.15;2.72;;;;;;;;;;5093222;28;20079;-69
2022/06/11 05:27:26;;;;;;;17.10;3.78;;;;;;;;;;5093386;28;20139;-69
2022/06/11 05:29:54;;;;;;;15.23;2.67;;;;;;;;;;5093350;28;20076;-69
2022/06/11 05:32:27;;;;;;;10.35;2.22;;;;;;;;;;5092671;28;20101;-69
2022/06/11 05:34:54;;;;;;;10.65;2.63;;;;;;;;;;5092911;28;20083;-69
2022/06/11 05:37:20;;;;;;;13.10;2.93;;;;;;;;;;5093081;28;20097;-68
2022/06/11 05:39:47;;;;;;;11.05;2.47;;;;;;;;;;5092896;28;20105;-68
2022/06/11 05:42:14;;;;;;;10.88;2.50;;;;;;;;;;5093233;28;20127;-68
2022/06/11 05:44:40;;;;;;;11.87;2.80;;;;;;;;;;5092706;28;20084;-68
2022/06/11 05:47:08;;;;;;;11.90;2.08;;;;;;;;;;5092728;28;20350;-68
2022/06/11 05:49:35;;;;;;;;;;;;;;;;;;5092174;28;20396;-68
2022/06/11 05:52:05;;;;;;;14.27;3.38;;;;;;;;;;5092987;28;19924;-68
2022/06/11 05:54:33;;;;;;;9.20;2.33;;;;;;;;;;5092592;28;20086;-69
2022/06/11 05:57:00;;;;;;;17.58;3.10;;;;;;;;;;5092731;28;20145;-68
2022/06/11 05:59:29;;;;;;;10.83;3.07;;;;;;;;;;5091615;28;20101;-68
2022/06/11 06:01:56;;;;;;;10.48;2.22;;;;;;;;;;5092474;28;20318;-68
2022/06/11 06:04:23;;;;;;;12.15;2.33;;;;;;;;;;5092444;28;20087;-69
2022/06/11 06:06:49;;;;;;;12.02;2.20;;;;;;;;;;5092287;28;20092;-69
2022/06/11 06:09:16;;;;;;;10.23;2.30;;;;;;;;;;5092767;28;20080;-68
2022/06/11 06:11:42;;;;;;;10.63;2.60;;;;;;;;;;5092281;28;20554;-69
2022/06/11 06:14:09;;;;;;;10.30;2.55;;;;;;;;;;5092347;28;20087;-69
2022/06/11 06:16:35;;;;;;;12.25;2.20;;;;;;;;;;5091294;28;20076;-68
2022/06/11 06:19:02;;;;;;;15.10;3.25;;;;;;;;;;5092127;28;20044;-68
2022/06/11 06:21:30;;;;;;;11.27;2.40;;;;;;;;;;5092197;28;20088;-67
2022/06/11 06:23:57;;;;;;;10.73;2.72;;;;;;;;;;5091353;28;20087;-67
2022/06/11 06:26:24;;;;;;;12.27;2.90;;;;;;;;;;5088870;28;20126;-67
2022/06/11 06:28:50;;;;;;;11.05;2.08;;;;;;;;;;5091820;28;20040;-67
2022/06/11 06:31:17;;;;;;;9.50;2.27;;;;;;;;;;5089066;28;20052;-68
2022/06/11 06:33:44;;;;;;;12.85;3.05;;;;;;;;;;5090565;28;20131;-67
2022/06/11 06:36:11;;;;;;;9.67;2.00;;;;;;;;;;5091557;28;20118;-71
2022/06/11 06:38:38;;;;;;;12.02;2.80;;;;;;;;;;5091797;28;20094;-69
2022/06/11 06:41:05;;;;;;;11.55;2.78;;;;;;;;;;5087460;28;20070;-66
2022/06/11 06:43:32;;;;;;;6.65;1.80;;;;;;;;;;5089620;28;20099;-67
2022/06/11 06:46:00;;;;;;;11.63;2.85;;;;;;;;;;5089400;28;20056;-71
2022/06/11 06:48:27;;;;;;;13.43;2.50;;;;;;;;;;5091527;28;20556;-67
2022/06/11 06:50:53;;;;;;;9.23;2.70;;;;;;;;;;5091284;28;20078;-67
2022/06/11 06:53:21;;;;;;;8.45;2.53;;;;;;;;;;5091392;28;20044;-67
2022/06/11 06:55:48;;;;;;;13.43;2.25;;;;;;;;;;5091752;28;20073;-68
2022/06/11 06:58:15;;;;;;;11.60;2.22;;;;;;;;;;5091976;28;20071;-66
2022/06/11 07:00:42;;;;;;;;;;;;;;;;;;5091731;28;20044;-67
2022/06/11 07:03:11;;;;;;;5.95;1.88;;;;;;;;;;5090713;28;19992;-66
2022/06/11 07:05:39;;;;;;;9.82;2.20;;;;;;;;;;5091001;28;20062;-66
2022/06/11 07:08:06;;;;;;;8.98;2.17;;;;;;;;;;5091590;28;20048;-71
2022/06/11 07:10:39;;;;;;;11.68;2.35;;;;;;;;;;5077319;28;20041;-68
2022/06/11 07:13:05;;;;;;;11.07;2.30;;;;;;;;;;5089201;28;20484;-70
2022/06/11 07:15:32;;;;;;;8.35;2.28;;;;;;;;;;5068455;28;20052;-68
2022/06/11 07:18:12;;;;;;;9.75;2.25;;;;;;;;;;5091667;28;20047;-68
2022/06/11 07:20:40;;;;;;;12.00;2.83;;;;;;;;;;5091534;28;20105;-68
2022/06/11 07:23:10;;;;;;;11.05;2.00;;;;;;;;;;5091362;28;20052;-68
2022/06/11 07:25:38;;;;;;;10.15;2.22;;;;;;;;;;5091495;28;20048;-69
2022/06/11 07:28:04;;;;;;;;;;;;;;;;;;5092409;28;20084;-68
2022/06/11 07:30:34;;;;;;;11.07;2.33;;;;;;;;;;5091319;28;20425;-68
2022/06/11 07:33:05;;;;;;;7.85;2.13;;;;;;;;;;5091442;28;20432;-69
2022/06/11 07:35:34;;;;;;;9.77;1.90;;;;;;;;;;5091405;28;20482;-69
2022/06/11 07:38:01;;;;;;;9.25;2.13;;;;;;;;;;5091336;28;20086;-68
2022/06/11 07:40:28;;;;;;;9.07;1.85;;;;;;;;;;5091266;28;20060;-68
2022/06/11 07:42:54;;;;;;;7.90;1.50;;;;;;;;;;5091560;28;20083;-68
2022/06/11 07:45:21;;;;;;;8.57;1.60;;;;;;;;;;5091532;28;20105;-68
2022/06/11 07:47:53;;;;;;;9.57;2.37;;;;;;;;;;5091070;28;20538;-68
2022/06/11 07:50:29;;;;;;;6.40;1.75;;;;;;;;;;5091238;28;20094;-68
2022/06/11 07:52:56;;;;;;;7.95;1.83;;;;;;;;;;5091370;28;20408;-69
2022/06/11 07:55:23;;;;;;;8.35;1.88;;;;;;;;;;5091684;28;20044;-68
2022/06/11 07:57:49;;;;;;;7.05;1.70;;;;;;;;;;5095109;28;20105;-69
2022/06/11 08:00:19;;;;;;;9.15;2.65;;;;;;;;;;5093846;28;20075;-71
2022/06/11 08:02:46;;;;;;;9.38;2.08;;;;;;;;;;5094592;28;20048;-71
2022/06/11 08:05:12;;;;;;;5.80;1.63;;;;;;;;;;5093955;28;20082;-71
2022/06/11 08:07:39;;;;;;;7.28;2.38;;;;;;;;;;5094176;28;20052;-71
2022/06/11 08:10:05;;;;;;;9.20;1.90;;;;;;;;;;5093858;28;20529;-70
2022/06/11 08:12:32;;;;;;;7.20;2.20;;;;;;;;;;5090154;28;20076;-72
2022/06/11 08:14:58;;;;;;;7.82;2.22;;;;;;;;;;5094144;28;20102;-68
2022/06/11 08:17:30;;;;;;;7.10;1.40;;;;;;;;;;5094531;28;20048;-68
2022/06/11 08:19:57;;;;;;;7.50;2.45;;;;;;;;;;5094834;28;20163;-68
2022/06/11 08:22:23;;;;;;;7.10;1.50;;;;;;;;;;5093882;28;20590;-69
2022/06/11 08:24:50;;;;;;;7.60;1.65;;;;;;;;;;5094130;28;20048;-67
2022/06/11 08:27:17;;;;;;;5.80;1.83;;;;;;;;;;5094262;28;20460;-67
2022/06/11 08:29:44;;;;;;;5.97;1.70;;;;;;;;;;5094215;28;20105;-68
2022/06/11 08:32:10;;;;;;;;;;;;;;;;;;5094490;28;20067;-67
2022/06/11 08:34:38;;;;;;;5.70;1.45;;;;;;;;;;5093175;28;19924;-71
2022/06/11 08:37:05;;;;;;;5.70;1.58;;;;;;;;;;5093474;28;20037;-72
2022/06/11 08:39:31;;;;;;;;;;;;;;;;;;5093646;28;20054;-70
2022/06/11 08:41:59;;;;;;;7.90;1.80;;;;;;;;;;5093536;28;20425;-73
2022/06/11 08:44:27;;;;;;;5.90;1.75;;;;;;;;;;5093807;28;20116;-68
2022/06/11 08:46:55;;;;;;;6.05;1.40;;;;;;;;;;5091490;28;20071;-69
2022/06/11 08:49:31;;;;;;;5.20;1.75;;;;;;;;;;5093586;28;20048;-68
2022/06/11 08:52:16;;;;;;;4.68;1.48;;;;;;;;;;5092996;28;20048;-68
2022/06/11 08:54:44;;;;;;;10.27;1.73;;;;;;;;;;5094134;28;20075;-69
2022/06/11 08:57:11;;;;;;;5.60;1.58;;;;;;;;;;5093620;28;20079;-69
2022/06/11 08:59:56;;;;;;;7.50;1.70;;;;;;;;;;5093949;28;20052;-71
2022/06/11 09:02:31;;;;;;;9.43;2.10;;;;;;;;;;5093859;28;20044;-70
2022/06/11 09:05:13;;;;;;;6.03;1.38;;;;;;;;;;5093177;28;20044;-72
2022/06/11 09:07:52;;;;;;;10.43;1.95;;;;;;;;;;5092599;28;20172;-72
2022/06/11 09:10:21;;;;;;;6.63;1.40;;;;;;;;;;5093353;28;20098;-72
2022/06/11 09:13:11;;;;;;;6.88;1.33;;;;;;;;;;5092622;28;20083;-71
2022/06/11 09:15:57;;;;;;;5.60;1.25;;;;;;;;;;5092050;28;20133;-71
2022/06/11 09:18:42;;;;;;;8.55;1.63;;;;;;;;;;5093024;28;20133;-71
2022/06/11 09:21:28;;;;;;;8.27;1.70;;;;;;;;;;5093226;28;20087;-72
2022/06/11 09:24:03;;;;;;;6.30;2.00;;;;;;;;;;5091922;28;20048;-71
2022/06/11 09:26:56;;;;;;;5.78;1.50;;;;;;;;;;5093270;28;20080;-71
2022/06/11 09:29:43;;;;;;;8.18;1.80;;;;;;;;;;5091273;28;20087;-71
2022/06/11 09:32:21;;;;;;;5.53;1.60;;;;;;;;;;5091270;28;20076;-71
2022/06/11 09:34:52;;;;;;;6.10;1.30;;;;;;;;;;5093246;28;20102;-71
2022/06/11 09:37:28;;;;;;;5.05;1.50;;;;;;;;;;5092996;28;20425;-72
2022/06/11 09:40:13;;;;;;;6.43;1.83;;;;;;;;;;5093245;28;20048;-71
2022/06/11 09:42:53;;;;;;;3.17;0.98;;;;;;;;;;5092093;28;20091;-67
2022/06/11 09:45:24;;;;;;;6.13;1.77;;;;;;;;;;5090894;28;20557;-73
2022/06/11 09:48:02;;;;;;;5.90;1.63;;;;;;;;;;5091769;28;20100;-73
2022/06/11 09:50:44;;;;;;;6.25;1.55;;;;;;;;;;5092807;28;20109;-69
2022/06/11 09:53:23;;;;;;;3.63;1.27;;;;;;;;;;5089085;28;20075;-73
2022/06/11 09:56:00;;;;;;;3.90;1.35;;;;;;;;;;5092056;28;20075;-70
2022/06/11 09:58:41;;;;;;;5.35;1.45;;;;;;;;;;5091538;28;20082;-73
2022/06/11 10:01:14;;;;;;;3.67;1.35;;;;;;;;;;5088289;28;20467;-73
2022/06/11 10:03:52;;;;;;;4.25;1.23;;;;;;;;;;5091165;28;20048;-72
2022/06/11 10:06:40;;;;;;;6.22;1.40;;;;;;;;;;5090008;28;20101;-72
2022/06/11 10:09:14;;;;;;;5.70;1.30;;;;;;;;;;5092443;28;20075;-73
2022/06/11 10:11:56;;;;;;;4.72;0.90;;;;;;;;;;5091790;28;20075;-72
2022/06/11 10:14:46;;;;;;;3.13;0.85;;;;;;;;;;5090228;28;20071;-72
2022/06/11 10:17:15;;;;;;;3.58;0.70;;;;;;;;;;5091777;28;20480;-72
2022/06/11 10:19:45;;;;;;;5.57;1.20;;;;;;;;;;5091453;28;20090;-72
2022/06/11 10:22:35;;;;;;;5.15;1.88;;;;;;;;;;5090945;28;20175;-72
2022/06/11 10:25:20;;;;;;;4.47;0.82;;;;;;;;;;5092268;28;20086;-73
2022/06/11 10:27:53;;;;;;;3.85;1.17;;;;;;;;;;5092086;28;20086;-72
2022/06/11 10:30:20;;;;;;;4.82;1.15;;;;;;;;;;5090947;28;20080;-72
2022/06/11 10:32:47;;;;;;;3.33;1.17;;;;;;;;;;5092205;28;20455;-73
2022/06/11 10:35:17;;;;;;;2.50;0.98;;;;;;;;;;5091690;28;20385;-73
2022/06/11 10:37:48;;;;;;;4.07;1.17;;;;;;;;;;5086009;28;20079;-72
2022/06/11 10:40:19;;;;;;;4.43;0.82;;;;;;;;;;5091199;28;20078;-72
2022/06/11 10:42:52;;;;;;;5.50;1.20;;;;;;;;;;5091492;28;20076;-73
2022/06/11 10:45:18;;;;;;;2.50;0.70;;;;;;;;;;5091558;28;20467;-79
2022/06/11 10:47:50;;;;;;;5.18;1.52;;;;;;;;;;5090994;28;20080;-72
2022/06/11 10:50:35;;;;;;;5.00;1.17;;;;;;;;;;5090400;28;20495;-72
2022/06/11 10:53:07;;;;;;;4.55;1.17;;;;;;;;;;5091994;28;20086;-72
2022/06/11 10:55:34;;;;;;;4.22;1.23;;;;;;;;;;5091107;28;20048;-68
2022/06/11 10:58:04;;;;;;;3.25;1.02;;;;;;;;;;5091577;28;20044;-70
2022/06/11 11:00:35;;;;;;;4.35;1.63;;;;;;;;;;5091462;28;20130;-69
2022/06/11 11:03:11;;;;;;;6.10;1.60;;;;;;;;;;5091955;28;20079;-72
2022/06/11 11:05:45;;;;;;;8.35;1.33;;;;;;;;;;5091867;28;20048;-72
2022/06/11 11:08:12;;;;;;;5.82;1.50;;;;;;;;;;5091654;28;20129;-64
2022/06/11 11:10:39;;;;;;;;;;;;;;;;;;5088893;28;20040;-64
2022/06/11 11:13:07;;;;;;;5.38;1.60;;;;;;;;;;5091045;28;19959;-64
2022/06/11 11:16:00;;;;;;;4.50;1.50;;;;;;;;;;5090132;28;20044;-63
2022/06/11 11:18:32;;;;;;;5.65;1.50;;;;;;;;;;5088309;28;20546;-64
2022/06/11 11:20:58;;;;;;;6.38;1.58;;;;;;;;;;5091803;28;20090;-66
2022/06/11 11:23:30;;;;;;;8.07;1.85;;;;;;;;;;5091264;28;20504;-65
2022/06/11 11:26:06;;;;;;;5.05;1.80;;;;;;;;;;5090047;28;20082;-65
2022/06/11 11:28:44;;;;;;;6.88;1.98;;;;;;;;;;5070876;28;20060;-65
2022/06/11 11:31:22;;;;;;;5.57;1.65;;;;;;;;;;5072437;28;20469;-66
2022/06/11 11:34:00;;;;;;;7.78;1.80;;;;;;;;;;5074401;28;20087;-66
2022/06/11 11:36:28;;;;;;;7.95;2.05;;;;;;;;;;5074149;28;20127;-66
2022/06/11 11:39:13;;;;;;;6.60;2.22;;;;;;;;;;5072317;28;20083;-67
2022/06/11 11:42:06;;;;;;;9.80;2.60;;;;;;;;;;5074080;28;20539;-71
2022/06/11 11:44:50;;;;;;;7.53;1.98;;;;;;;;;;5074183;28;20102;-71
2022/06/11 11:47:24;;;;;;;7.53;2.13;;;;;;;;;;5073091;28;20048;-70
2022/06/11 11:49:55;;;;;;;6.80;2.00;;;;;;;;;;5074115;28;20053;-67
2022/06/11 11:52:23;;;;;;;7.25;1.90;;;;;;;;;;5073727;28;20078;-73
2022/06/11 11:54:53;;;;;;;4.00;1.65;;;;;;;;;;5074365;28;20131;-72
2022/06/11 11:57:20;;;;;;;3.55;1.10;;;;;;;;;;5073738;28;20048;-71
2022/06/11 11:59:49;;;;;;;4.32;1.63;;;;;;;;;;5075685;28;20126;-70
2022/06/11 12:02:31;;;;;;;3.85;1.50;;;;;;;;;;5094033;28;20067;-71
2022/06/11 12:04:59;;;;;;;10.02;2.05;;;;;;;;;;5093841;28;20122;-71
2022/06/11 12:07:34;;;;;;;3.80;1.55;;;;;;;;;;5093975;28;20484;-72
2022/06/11 12:10:13;;;;;;;4.20;1.73;;;;;;;;;;5094410;28;20090;-71
2022/06/11 12:12:41;;;;;;;5.43;1.85;;;;;;;;;;5094200;28;20076;-68
2022/06/11 12:15:16;;;;;;;4.85;1.75;;;;;;;;;;5093622;28;20040;-67
2022/06/11 12:17:49;;;;;;;5.13;1.80;;;;;;;;;;5093809;28;20146;-68
2022/06/11 12:20:15;;;;;;;4.60;1.77;;;;;;;;;;5093858;28;20083;-67
2022/06/11 12:22:55;;;;;;;3.95;1.58;;;;;;;;;;5093545;28;20562;-66
2022/06/11 12:25:27;;;;;;;5.75;1.67;;;;;;;;;;5087249;28;20109;-67
2022/06/11 12:27:54;;;;;;;4.18;1.70;;;;;;;;;;5092161;28;20134;-69
2022/06/11 12:30:21;;;;;;;;;;;;;;;;;;5091697;28;20531;-68
2022/06/11 12:32:48;;;;;;;4.85;1.33;;;;;;;;;;5086488;28;19919;-69
2022/06/11 12:35:23;;;;;;;4.80;1.80;;;;;;;;;;5088544;28;20466;-69
2022/06/11 12:37:56;;;;;;;2.95;1.30;;;;;;;;;;5090970;28;20048;-70
2022/06/11 12:40:30;;;;;;;3.63;1.63;;;;;;;;;;5093752;28;20123;-69
2022/06/11 12:43:08;;;;;;;4.32;1.80;;;;;;;;;;5092660;28;20116;-70
2022/06/11 12:45:55;;;;;;;5.40;2.45;;;;;;;;;;5093782;28;20494;-72
2022/06/11 12:48:22;;;;;;;4.28;1.83;;;;;;;;;;5091849;28;20105;-72
2022/06/11 12:51:03;;;;;;;5.53;1.90;;;;;;;;;;5093186;28;20102;-67
2022/06/11 12:53:29;;;;;;;3.67;1.73;;;;;;;;;;5093859;28;20078;-69
2022/06/11 12:56:03;;;;;;;4.75;1.70;;;;;;;;;;5093427;28;20086;-72
2022/06/11 12:58:32;;;;;;;5.22;1.70;;;;;;;;;;5093528;28;20484;-76
2022/06/11 13:01:18;;;;;;;5.57;1.92;;;;;;;;;;5093271;28;20584;-73
2022/06/11 13:03:45;;;;;;;4.72;2.10;;;;;;;;;;5093637;28;20083;-70
2022/06/11 13:06:11;;;;;;;;;;;;;;;;;;5093894;28;20048;-70
2022/06/11 13:08:47;;;;;;;6.85;2.28;;;;;;;;;;5093348;28;19920;-71
2022/06/11 13:11:32;;;;;;;5.15;2.00;;;;;;;;;;5093553;28;20080;-70
2022/06/11 13:14:20;;;;;;;8.90;1.88;;;;;;;;;;5093460;28;20075;-70
2022/06/11 13:17:05;;;;;;;5.60;1.92;;;;;;;;;;5093627;28;20090;-70
2022/06/11 13:19:40;;;;;;;6.53;2.47;;;;;;;;;;5092225;28;20109;-70
2022/06/11 13:22:09;;;;;;;5.38;2.20;;;;;;;;;;5093292;28;20075;-71
2022/06/11 13:24:35;;;;;;;6.03;1.98;;;;;;;;;;5093256;28;20108;-71
2022/06/11 13:27:01;;;;;;;;;;;;;;;;;;5093544;28;20105;-70
2022/06/11 13:29:36;;;;;;;5.93;1.98;;;;;;;;;;5092916;28;19924;-70
2022/06/11 13:32:06;;;;;;;6.28;1.95;;;;;;;;;;5093074;28;20044;-71
2022/06/11 13:34:38;;;;;;;5.88;1.95;;;;;;;;;;5093521;28;20079;-71
2022/06/11 13:37:11;;;;;;;5.28;2.08;;;;;;;;;;5093282;28;20456;-70
2022/06/11 13:39:41;;;;;;;5.82;2.10;;;;;;;;;;5092989;28;20519;-70
2022/06/11 13:42:07;;;;;;;5.50;1.77;;;;;;;;;;5092003;28;20425;-70
2022/06/11 13:44:38;;;;;;;;;;;;;;;;;;5093630;28;20075;-70
2022/06/11 13:47:23;;;;;;;7.25;1.92;;;;;;;;;;5092796;28;19924;-70
2022/06/11 13:49:58;;;;;;;5.50;1.70;;;;;;;;;;5092758;28;20504;-70
2022/06/11 13:55:27;;;;;;;3.72;1.50;;;;;;;;;;5085228;28;20182;-70
2022/06/11 13:58:02;;;;;;;4.72;1.98;;;;;;;;;;5083982;28;20076;-70
2022/06/11 14:00:41;;;;;;;7.93;2.10;;;;;;;;;;5092691;28;20048;-70
2022/06/11 14:03:27;;;;;;;6.63;2.17;;;;;;;;;;5079960;28;20045;-70
2022/06/11 14:05:55;;;;;;;9.35;1.98;;;;;;;;;;5079607;28;20075;-70
2022/06/11 14:08:22;;;;;;;7.32;1.65;;;;;;;;;;5092465;28;20051;-70
2022/06/11 14:10:51;;;;;;;10.88;2.20;;;;;;;;;;5092487;28;20135;-70
2022/06/11 14:13:21;;;;;;;6.55;2.00;;;;;;;;;;5092552;28;20052;-70
2022/06/11 14:15:51;;;;;;;5.35;1.77;;;;;;;;;;5092266;28;20048;-70
2022/06/11 14:18:23;;;;;;;4.90;2.50;;;;;;;;;;5092297;28;20552;-70
2022/06/11 14:20:50;;;;;;;8.32;2.20;;;;;;;;;;5092426;28;20121;-72
2022/06/11 14:23:16;;;;;;;5.45;2.03;;;;;;;;;;5090951;28;20181;-70
2022/06/11 14:25:44;;;;;;;9.35;2.55;;;;;;;;;;5076151;28;20508;-70
2022/06/11 14:28:13;;;;;;;5.95;1.95;;;;;;;;;;5081031;28;20468;-70
2022/06/11 14:30:47;;;;;;;5.65;2.20;;;;;;;;;;5091964;28;20079;-69
2022/06/11 14:33:14;;;;;;;8.10;2.30;;;;;;;;;;5092452;28;20047;-70
2022/06/11 14:35:50;;;;;;;5.00;1.80;;;;;;;;;;5088601;28;20040;-66
2022/06/11 14:38:16;;;;;;;5.13;1.77;;;;;;;;;;5084878;28;20064;-65
2022/06/11 14:40:43;;;;;;;3.22;1.52;;;;;;;;;;5091559;28;20075;-65
2022/06/11 14:43:11;;;;;;;7.10;1.92;;;;;;;;;;5090901;28;20090;-65
2022/06/11 14:45:50;;;;;;;5.82;1.63;;;;;;;;;;5092045;28;20048;-64
2022/06/11 14:48:35;;;;;;;6.55;1.70;;;;;;;;;;5091605;28;20059;-65
2022/06/11 14:51:04;;;;;;;7.20;2.25;;;;;;;;;;5091843;28;20135;-65
2022/06/11 14:53:38;;;;;;;7.72;2.03;;;;;;;;;;5091057;28;20458;-64
2022/06/11 14:56:13;;;;;;;5.15;1.92;;;;;;;;;;5091142;28;20077;-65
2022/06/11 14:58:39;;;;;;;5.07;1.75;;;;;;;;;;5091400;28;20427;-65
2022/06/11 15:01:06;;;;;;;;;;;;;;;;;;5091993;28;20063;-65
2022/06/11 15:03:38;;;;;;;5.78;1.58;;;;;;;;;;5091115;28;19928;-64
2022/06/11 15:06:19;;;;;;;4.10;1.58;;;;;;;;;;5095017;28;20134;-64